Choctaw, Oklahoma
Current Conditions -  °F | °C
As of 7:58 PM on Thursday 20 Nov 2014 (Local Time) from KTIK Reporting Station
Clear Clear  
Wind Chill: 44°   Ceiling: Unl
Heat Index: 48°   Visibility: 10mi
Dew Point: 37°   Wind: 8mph
Humidity: 67%   Direction: 70°ENE
Pressure: 30.04"   Gusts: NA
Location:  35.49°N, 97.27°W
Report Text: KTIK 210158Z AUTO 07007KT 10SM CLR 09/03 A3004 RMK AO2 SLP184 T00870028
Loading
Personal Weather Stations






























Interactive Weather Map New forecast layout! Learn more

10-Day Weather Forecast

Advertisements
Track Severe Weather on mobile